Blaine, Minnesota
Current Conditions -  °F | °C
As of 4:14 AM on Tuesday 21 Oct 2014 (Local Time) from KANE Reporting Station
Clear Clear  
Wind Chill: 36°   Ceiling: Unl
Heat Index: 36°   Visibility: 7mi
Dew Point: 36°   Wind: 0mph
Humidity: 100%   Direction: NA
Pressure: 30.15"   Gusts: NA
Location:  45.17°N, 93.21°W
Report Text: KANE 210914Z AUTO 00000KT 7SM CLR 02/02 A3015 RMK AO2
Loading
Personal Weather Stations






























Interactive Weather Map
Tropical Storm Tracking
New forecast layout! Learn more

10-Day Weather Forecast

Advertisements
Track Severe Weather on mobile